Flight Track Log - Related Links

Times and Time Zones

All times are in EDT time to prevent confusion due to time zone crossing. See the THU850 flight status page for this flight to view local times or setup timezone preferences in your user account.


Time Position Orientation Groundspeed Altitude Reporting Facility
EDT Latitude Longitude Course Direction KTS MPH feet Rate Location/Type
Sat 08:34:02 AM 48.3667 -89.2833 360° North 20 23 600  Level Winnipeg Center
Sat 08:35:02 AM 48.3667 -89.2833 78° East 10 12 700 914 Climbing Winnipeg Center
Sat 08:37:00 AM 48.3905 -89.0977 73° East  Level FlightAware Approximate
Sat 08:41:35 AM 48.4167 -88.9167 79° East 220 253 7,500  Level Winnipeg Center
Sat 08:42:35 AM 48.4333 -88.8500 69° East 230 265 8,900 1,550 Climbing Winnipeg Center
Sat 08:43:35 AM 48.4333 -88.7500 90° East 230 265 10,600 1,500 Climbing Winnipeg Center
Sat 08:44:00 AM 48.4867 -88.4413 79° East  Level FlightAware Approximate
Sat 08:44:35 AM 48.4500 -88.6333 78° East 240 276 11,900  Level Winnipeg Center
Sat 08:45:00 AM 48.4994 -88.3468 79° East  Level FlightAware Approximate
Sat 08:45:35 AM 48.4500 -88.5333 90° East 250 288 13,200  Level Winnipeg Center
Sat 08:46:00 AM 48.5120 -88.2522 79° East  Level FlightAware Approximate
Sat 08:46:35 AM 48.4833 -88.4333 63° Northeast 260 299 14,300  Level Winnipeg Center
Sat 08:47:35 AM 48.4833 -88.3333 90° East 260 299 15,000 350 Climbing Winnipeg Center
Sat 08:48:35 AM 48.5167 -88.2000 69° East 290 334 15,000 50 Level Winnipeg Center
Sat 08:49:35 AM 48.5167 -88.1000 90° East 310 357 15,100 50 Climbing Winnipeg Center
Sat 08:50:35 AM 48.5500 -87.9333 73° East 320 368 15,100 -50 Level Winnipeg Center
Sat 08:51:35 AM 48.5667 -87.8000 79° East 320 368 15,000 -50 Descending Winnipeg Center
Sat 08:52:35 AM 48.5833 -87.6833 78° East 320 368 15,000 -50 Level Winnipeg Center
Sat 08:53:35 AM 48.6167 -87.5667 67° East 320 368 14,900 -50 Descending Winnipeg Center
Sat 08:54:35 AM 48.6167 -87.4167 90° East 320 368 14,900 -900 Level Winnipeg Center
Sat 08:55:35 AM 48.6333 -87.2833 79° East 340 391 13,100 -2,150 Descending Winnipeg Center
Sat 08:56:35 AM 48.6500 -87.1333 80° East 340 391 10,600 -2,350 Descending Winnipeg Center
Sat 08:57:35 AM 48.6667 -87.0000 79° East 330 380 8,400 -2,300 Descending Winnipeg Center
Sat 08:58:35 AM 48.6833 -86.8667 79° East 310 357 6,000 -2,400 Descending Winnipeg Center
Sat 09:00:00 AM 48.7025 -86.7327 78° East  Level FlightAware Approximate
Sat 09:07:00 AM 48.7500 -86.3333 90° East  Level FlightAware Approximate

Login

Don't have an account? Register now (free) for customized features, flight alerts, and more!